Comfort, TX (78013)

7:03 PM CDT on August 04, 2015 (GMT -0500)
Turkey Hollow | | Change Station
CLOSE
Current Station
Personal Weather Station
Location: Comfort, TX
Elevation: 1624 ft
Nearby Weather Stations

Elev 1624 ft 30.08 °N, 98.85 °W | Updated 5 minutes ago

Mostly Cloudy
Mostly Cloudy
93.7 °F
Feels Like 97 °F
N
3.0
Wind Variable Wind from SSW
Gusts 7.0 mph

Today
High -- | Low -- °F
--% Chance of Precip.
Yesterday
High -- | Low -- °F
Precip. -- in
6:56 AM 8:26 PM
Waning Gibbous, 73% visible
Pressure 29.93 in
Visibility 10.0 miles
Clouds Clear
Heat Index 97 °F
Dew Point 67 °F
Humidity 41%
Rainfall 0.00 in
Snow Depth Not available.
UV 1 out of 12
Pollen 6.20 out of 12
Air Quality Not available.
Flu Activity Not available.
METAR KERV 042355Z AUTO 17007KT 10SM CLR 35/18 A2993 RMK AO2 T03450180 10360 20331

More Conditions Fewer Conditions

Pressure 29.93 in
Visibility 10.0 miles
Clouds Clear
Heat Index 97 °F
Dew Point 67 °F
Humidity 41%
Rainfall 0.00 in
Snow Depth Not available.
UV 1 out of 12
Pollen 6.20 out of 12
Air Quality Not available.
Flu Activity Not available.
METAR KERV 042355Z AUTO 17007KT 10SM CLR 35/18 A2993 RMK AO2 T03450180 10360 20331

More Conditions Fewer Conditions

10-Day Weather Forecast

×

Almanac

Astronomy

Aug. 04, 2015 Rise Set
Actual Time
Civil Twilight
Nautical Twilight
Astronomical Twilight
Moon
Length of Visible Light
Length of Day
Tomorrow will be .
, % of the Moon is Illuminated

Today's Extremes

State Highs State Lows

Community

WunderPhotos

Upload Photos

1,844,024 photos uploaded!

WunderBlogs® & News

Nearby

Air Quality

  Air Quality AQ Index Pollutant
Not available.

Snow Depth

Station Depth Elevation

Earthquake Activity

City Distance Mag. Time & Date
Minimum magnitude displayed is 2.5.

Coastal Water Temperatures

Place Temperature

Stations

Nearby Weather Stations

Station Location Temp. Windchill Dew Point Humidity Wind Precip. Elev Updated Type